シャルル・ド・ゴール国際空港(パリ)の過去48時間の天気

シャルル・ド・ゴール国際空港(パリ) (Paris-Aeroport Charles De Gaulle)

現在時刻: 7/15 12:43 CEST (7/15 10:43 UTC) 以下の時間は現地時間です。

過去48時間のMETAR気象情報
時間 風向 風速(m/s) 視程 気温(℃) 湿度(%) 気圧(hPa) 天気現象
15 12:00 西 3 10km以上 20 64 1016
15 11:30 北西 2 10km以上 19 68 1016
15 11:00 西北西 3 10km以上 18 73 1016
15 10:30 西 4 10km以上 18 77 1016
15 10:00 西 4 10km以上 17 83 1016
15 09:30 西 3 10km以上 16 88 1015
15 09:00 西 4 10km以上 16 94 1015
15 08:30 西南西 3 10km以上 16 88 1015
15 08:00 西南西 2 10km以上 15 94 1015
15 07:30 西南西 2 10km以上 15 94 1015
15 07:00 西 2 10km以上 15 94 1015 弱い雨
15 06:30 西 1 6000m 15 94 1015 弱い雨
15 06:00 西 2 6000m 15 94 1015 弱い雨
15 05:30 西 3 8000m 16 88 1015 弱いしゅう雨
15 05:00 西北西 2 10km以上 17 77 1014
15 04:30 静穏 0 10km以上 17 77 1015 弱いしゅう雨
15 04:00 静穏 0 10km以上 17 72 1015
15 03:30 1 10km以上 17 72 1015
15 03:00 2 10km以上 17 72 1015
15 02:30 2 10km以上 17 72 1015
15 02:00 不定 1 10km以上 17 72 1015
15 01:30 2 10km以上 17 72 1015
15 01:00 北東 3 10km以上 17 72 1015
15 00:30 北東 2 10km以上 17 72 1016
15 00:00 北北東 2 10km以上 18 68 1016
14 23:30 北北東 3 10km以上 18 64 1015
14 23:00 3 10km以上 18 64 1015
14 22:30 3 10km以上 19 60 1015
14 22:00 3 10km以上 19 64 1015
14 21:30 北北西 4 10km以上 20 60 1015
14 21:00 北北西 3 10km以上 20 60 1015
14 20:30 北北西 4 10km以上 21 53 1015
14 20:00 北西 5 10km以上 21 53 1015
14 19:30 西北西 5 10km以上 22 53 1015
14 19:00 北西 5 10km以上 22 57 1015
14 18:30 西北西 4 10km以上 21 60 1015
14 18:00 西 4 10km以上 22 57 1015
14 17:30 西 5 10km以上 21 56 1016
14 17:00 西 5 10km以上 21 60 1016
14 16:30 西北西 6 10km以上 22 57 1016
14 16:00 西 4 10km以上 22 57 1016
14 15:30 西南西 5 10km以上 22 60 1016
14 15:00 西 5 10km以上 21 64 1017
14 14:30 西 5 10km以上 20 68 1017
14 14:00 西南西 5 10km以上 20 68 1017
14 13:30 西南西 5 10km以上 19 68 1017
14 13:00 西 3 10km以上 18 73 1017
14 12:30 西南西 5 10km以上 18 68 1018
14 12:00 西 5 10km以上 20 46 1018
14 11:30 西 6 10km以上 21 38 1018
14 11:00 西 5 10km以上 21 43 1018
14 10:30 西 4 10km以上 20 49 1018
14 10:00 西 4 10km以上 19 52 1018
14 09:30 西北西 4 10km以上 19 49 1018
14 09:00 西北西 3 10km以上 17 55 1018
14 08:30 西北西 2 10km以上 17 55 1018
14 08:00 西 2 10km以上 16 59 1018
14 07:30 西 3 10km以上 15 63 1018
14 07:00 西 1 10km以上 15 63 1018
14 06:30 西南西 1 10km以上 15 63 1018
14 06:00 西北西 1 10km以上 15 67 1018
14 05:30 北西 2 10km以上 15 67 1019
14 05:00 北北西 2 10km以上 15 67 1019
14 04:30 北西 2 10km以上 15 67 1019
14 04:00 北西 2 10km以上 15 67 1019
14 03:30 北北西 3 10km以上 15 63 1019
14 03:00 3 10km以上 16 59 1020
14 02:30 北西 3 10km以上 17 55 1020
14 02:00 北北西 3 10km以上 17 55 1020
14 01:30 3 10km以上 17 55 1020
14 01:00 3 10km以上 17 55 1020
14 00:30 4 10km以上 18 52 1020
14 00:00 4 10km以上 18 52 1020
13 23:30 4 10km以上 19 49 1020
13 23:00 4 10km以上 19 49 1020
13 22:30 5 10km以上 21 46 1020
13 22:00 5 10km以上 22 43 1020
13 21:30 4 10km以上 23 38 1020
13 21:00 北北西 4 10km以上 24 31 1020
13 20:30 4 10km以上 25 30 1020
13 20:00 北北西 5 10km以上 26 26 1020
13 19:30 北北西 4 10km以上 26 26 1020
13 19:00 北西 4 10km以上 26 24 1020
13 18:30 北北西 4 10km以上 27 23 1020
13 18:00 北北西 5 10km以上 27 23 1020
13 17:30 4 10km以上 27 24 1020
13 17:00 3 10km以上 26 26 1021
13 16:30 3 10km以上 27 26 1021
13 16:00 3 10km以上 26 28 1021
13 15:30 3 10km以上 26 30 1022
13 15:00 北西 4 10km以上 25 32 1022
13 14:30 3 10km以上 25 32 1022
13 14:00 北東 3 10km以上 24 34 1023
13 13:30 不定 2 10km以上 24 34 1023
13 13:00 北北西 3 10km以上 24 38 1023
LFPG 151000Z 27005KT 200V350 9999 FEW020TCU SCT022 20/13 Q1016 TEMPO FEW020TCU
LFPG 150930Z 31004KT 230V360 9999 SCT020 SCT066 BKN090 19/13 Q1016 TEMPO FEW020TCU
LFPG 150900Z 30006KT 270V350 9999 SCT017 SCT066 BKN093 18/13 Q1016 BECMG SCT012
LFPG 150830Z 28007KT 260V320 9999 BKN015 SCT034 BKN096 18/14 Q1016 BECMG SCT012
LFPG 150800Z 28007KT 9999 BKN012 17/14 Q1016 BECMG SCT012
LFPG 150730Z 28006KT 260V320 9999 BKN011 BKN110 16/14 Q1015 BECMG SCT012
LFPG 150700Z 28008KT 9999 BKN008 SCT034 BKN100 16/15 Q1015 TEMPO BKN008
LFPG 150630Z 25006KT 9999 BKN008 SCT046 BKN120 16/14 Q1015 TEMPO BKN008
LFPG 150600Z 24004KT 9999 FEW015 SCT023 BKN096 15/14 Q1015 NOSIG
LFPG 150530Z 25003KT 9999 FEW009 SCT021 BKN080 15/14 Q1015 NOSIG
LFPG 150500Z 27003KT 9999 -RA FEW026 OVC060 15/14 Q1015 NOSIG
LFPG 150430Z 28002KT 6000 -RA FEW040 OVC060 15/14 Q1015 NOSIG
LFPG 150400Z 28004KT 6000 -RA FEW019 BKN044 15/14 Q1015 NOSIG
LFPG 150330Z 28006KT 8000 -SHRA BKN032 BKN053 16/14 Q1015 NOSIG
LFPG 150300Z 29003KT 9999 SCT046 BKN071 17/13 Q1014 NOSIG
LFPG 150230Z 00000KT 9999 -SHRA SCT035 BKN082 17/13 Q1015 NOSIG
LFPG 150200Z 00000KT 9999 SCT032 BKN083 17/12 Q1015 NOSIG
LFPG 150130Z 36002KT 9999 SCT032 BKN096 17/12 Q1015 NOSIG
LFPG 150100Z 01003KT CAVOK 17/12 Q1015 NOSIG
LFPG 150030Z 35004KT 9999 BKN048 BKN130 17/12 Q1015 NOSIG
LFPG 150000Z VRB02KT CAVOK 17/12 Q1015 NOSIG
LFPG 142330Z 01003KT CAVOK 17/12 Q1015 NOSIG
LFPG 142300Z 04005KT CAVOK 17/12 Q1015 NOSIG
LFPG 142230Z 04004KT CAVOK 17/12 Q1016 NOSIG
LFPG 142200Z 02004KT CAVOK 18/12 Q1016 NOSIG
LFPG 142130Z 02005KT CAVOK 18/11 Q1015 NOSIG
LFPG 142100Z 36006KT CAVOK 18/11 Q1015 NOSIG
LFPG 142030Z 36006KT CAVOK 19/11 Q1015 NOSIG
LFPG 142000Z 35005KT CAVOK 19/12 Q1015 NOSIG
LFPG 141930Z 34008KT CAVOK 20/12 Q1015 NOSIG
LFPG 141900Z 33005KT CAVOK 20/12 Q1015 NOSIG
LFPG 141830Z 33008KT CAVOK 21/11 Q1015 NOSIG
LFPG 141800Z 32010KT 290V350 CAVOK 21/11 Q1015 NOSIG
LFPG 141730Z 30010KT 270V340 9999 FEW038 SCT073 OVC230 22/12 Q1015 NOSIG
LFPG 141700Z 31009KT 280V350 9999 FEW033 SCT066 OVC260 22/13 Q1015 NOSIG
LFPG 141630Z 29008KT 240V320 9999 FEW032 SCT034 21/13 Q1015 NOSIG
LFPG 141600Z 26008KT 230V290 9999 FEW032 SCT053 22/13 Q1015 NOSIG
LFPG 141530Z 27010KT 9999 SCT040 SCT046 21/12 Q1016 NOSIG
LFPG 141500Z 27010KT 9999 FEW030 SCT033 21/13 Q1016 NOSIG
LFPG 141430Z 29011KT 250V320 9999 SCT030 SCT053 22/13 Q1016 NOSIG
LFPG 141400Z 27008KT 230V300 9999 SCT030 SCT053 BKN110 22/13 Q1016 NOSIG
LFPG 141330Z 25009KT 190V350 9999 SCT025 SCT033 BKN110 22/14 Q1016 NOSIG
LFPG 141300Z 28009KT 250V310 9999 BKN023 SCT030 21/14 Q1017 NOSIG
LFPG 141230Z 28010KT 240V310 9999 BKN020 SCT030 20/14 Q1017 NOSIG
LFPG 141200Z 24010KT 210V020 9999 BKN020 SCT040 20/14 Q1017 NOSIG
LFPG 141130Z 24010KT 210V280 9999 SCT020 BKN030 19/13 Q1017 NOSIG
LFPG 141100Z 26006KT 240V310 9999 SCT020 BKN033 18/13 Q1017 NOSIG
LFPG 141030Z 25010KT 9999 BKN021 BKN036 18/12 Q1018 TEMPO 4000 -RA BKN015
LFPG 141000Z 27010KT 240V310 9999 FEW031 BKN040 20/08 Q1018 TEMPO 4000 -RA BKN015
LFPG 140930Z 26012KT 9999 BKN046 21/06 Q1018 TEMPO 4000 -RA BKN015
LFPG 140900Z 26010KT 230V290 CAVOK 21/08 Q1018 NOSIG
LFPG 140830Z 27007KT 240V300 CAVOK 20/09 Q1018 NOSIG
LFPG 140800Z 27007KT 240V300 CAVOK 19/09 Q1018 NOSIG
LFPG 140730Z 29007KT 260V320 CAVOK 19/08 Q1018 NOSIG
LFPG 140700Z 29005KT 250V320 CAVOK 17/08 Q1018 NOSIG
LFPG 140630Z 29004KT 260V320 CAVOK 17/08 Q1018 NOSIG
LFPG 140600Z 28004KT CAVOK 16/08 Q1018 NOSIG
LFPG 140530Z 26005KT CAVOK 15/08 Q1018 NOSIG
LFPG 140500Z 27002KT CAVOK 15/08 Q1018 NOSIG
LFPG 140430Z 24002KT CAVOK 15/08 Q1018 NOSIG
LFPG 140400Z 30002KT CAVOK 15/09 Q1018 NOSIG
LFPG 140330Z 31003KT CAVOK 15/09 Q1019 NOSIG
LFPG 140300Z 33003KT CAVOK 15/09 Q1019 NOSIG
LFPG 140230Z 31003KT CAVOK 15/09 Q1019 NOSIG
LFPG 140200Z 32003KT CAVOK 15/09 Q1019 NOSIG
LFPG 140130Z 34005KT CAVOK 15/08 Q1019 NOSIG
LFPG 140100Z 35006KT CAVOK 16/08 Q1020 NOSIG
LFPG 140030Z 32005KT CAVOK 17/08 Q1020 NOSIG
LFPG 140000Z 34006KT CAVOK 17/08 Q1020 NOSIG
LFPG 132330Z 36006KT CAVOK 17/08 Q1020 NOSIG
LFPG 132300Z 01006KT CAVOK 17/08 Q1020 NOSIG
LFPG 132230Z 35007KT CAVOK 18/08 Q1020 NOSIG
LFPG 132200Z 35008KT CAVOK 18/08 Q1020 NOSIG
LFPG 132130Z 36007KT CAVOK 19/08 Q1020 NOSIG
LFPG 132100Z 35008KT CAVOK 19/08 Q1020 NOSIG
LFPG 132030Z 35010KT CAVOK 21/09 Q1020 NOSIG
LFPG 132000Z 35010KT CAVOK 22/09 Q1020 NOSIG
LFPG 131930Z 36008KT CAVOK 23/08 Q1020 NOSIG
LFPG 131900Z 34007KT CAVOK 24/06 Q1020 NOSIG
LFPG 131830Z 35008KT CAVOK 25/06 Q1020 NOSIG
LFPG 131800Z 33009KT CAVOK 26/05 Q1020 NOSIG
LFPG 131730Z 34007KT 300V010 CAVOK 26/05 Q1020 NOSIG
LFPG 131700Z 31008KT CAVOK 26/04 Q1020 NOSIG
LFPG 131630Z 33008KT 280V010 CAVOK 27/04 Q1020 NOSIG
LFPG 131600Z 33009KT CAVOK 27/04 Q1020 NOSIG
LFPG 131530Z 36008KT 310V050 CAVOK 27/05 Q1020 NOSIG
LFPG 131500Z VRB06KT CAVOK 26/05 Q1021 NOSIG
LFPG 131430Z VRB06KT CAVOK 27/06 Q1021 NOSIG
LFPG 131400Z VRB06KT CAVOK 26/06 Q1021 NOSIG
LFPG 131330Z 36006KT 300V080 CAVOK 26/07 Q1022 NOSIG
LFPG 131300Z 32008KT 290V360 CAVOK 25/07 Q1022 NOSIG
LFPG 131230Z VRB05G17KT CAVOK 25/07 Q1022 NOSIG
LFPG 131200Z 05005KT 340V150 CAVOK 24/07 Q1023 NOSIG
LFPG 131130Z VRB03KT CAVOK 24/07 Q1023 NOSIG
LFPG 131100Z 34005KT 270V030 CAVOK 24/09 Q1023 NOSIG